sensor_id;sensor_type;location;lat;lon;timestamp;temperature;humidity
45491;DHT22;31237;45.586;13.782;2024-03-29T00:00:46;11.40;99.90
45491;DHT22;31237;45.586;13.782;2024-03-29T00:03:12;11.40;99.90
45491;DHT22;31237;45.586;13.782;2024-03-29T00:05:38;11.40;99.90
45491;DHT22;31237;45.586;13.782;2024-03-29T00:08:04;11.40;99.90
45491;DHT22;31237;45.586;13.782;2024-03-29T00:10:30;11.30;99.90
45491;DHT22;31237;45.586;13.782;2024-03-29T00:12:56;11.30;99.90
45491;DHT22;31237;45.586;13.782;2024-03-29T00:15:22;11.30;99.90
45491;DHT22;31237;45.586;13.782;2024-03-29T00:17:48;11.30;99.90
45491;DHT22;31237;45.586;13.782;2024-03-29T00:20:14;11.30;99.90
45491;DHT22;31237;45.586;13.782;2024-03-29T00:22:41;11.30;99.90
45491;DHT22;31237;45.586;13.782;2024-03-29T00:25:07;11.30;99.90
45491;DHT22;31237;45.586;13.782;2024-03-29T00:27:32;11.30;99.90
45491;DHT22;31237;45.586;13.782;2024-03-29T00:29:58;11.20;99.90
45491;DHT22;31237;45.586;13.782;2024-03-29T00:32:25;11.20;99.90
45491;DHT22;31237;45.586;13.782;2024-03-29T00:34:52;11.20;99.90
45491;DHT22;31237;45.586;13.782;2024-03-29T00:37:20;11.20;99.90
45491;DHT22;31237;45.586;13.782;2024-03-29T00:39:46;11.20;99.90
45491;DHT22;31237;45.586;13.782;2024-03-29T00:42:12;11.20;99.90
45491;DHT22;31237;45.586;13.782;2024-03-29T00:44:43;11.20;99.90
45491;DHT22;31237;45.586;13.782;2024-03-29T00:47:10;11.20;99.90
45491;DHT22;31237;45.586;13.782;2024-03-29T00:49:36;11.20;99.90
45491;DHT22;31237;45.586;13.782;2024-03-29T00:52:03;11.20;99.90
45491;DHT22;31237;45.586;13.782;2024-03-29T00:54:29;11.20;99.90
45491;DHT22;31237;45.586;13.782;2024-03-29T00:56:55;11.10;99.90
45491;DHT22;31237;45.586;13.782;2024-03-29T00:59:21;11.10;99.90
45491;DHT22;31237;45.586;13.782;2024-03-29T01:01:47;11.10;99.90
45491;DHT22;31237;45.586;13.782;2024-03-29T01:04:13;11.10;99.90
45491;DHT22;31237;45.586;13.782;2024-03-29T01:06:39;11.10;99.90
45491;DHT22;31237;45.586;13.782;2024-03-29T01:09:08;11.00;99.90
45491;DHT22;31237;45.586;13.782;2024-03-29T01:11:37;11.00;99.90
45491;DHT22;31237;45.586;13.782;2024-03-29T01:14:04;11.00;99.90
45491;DHT22;31237;45.586;13.782;2024-03-29T01:16:31;11.10;99.90
45491;DHT22;31237;45.586;13.782;2024-03-29T01:19:00;11.10;99.90
45491;DHT22;31237;45.586;13.782;2024-03-29T01:21:26;11.10;99.90
45491;DHT22;31237;45.586;13.782;2024-03-29T01:23:52;11.10;99.90
45491;DHT22;31237;45.586;13.782;2024-03-29T01:26:18;11.10;99.90
45491;DHT22;31237;45.586;13.782;2024-03-29T01:28:44;11.10;99.90
45491;DHT22;31237;45.586;13.782;2024-03-29T01:31:11;11.00;99.90
45491;DHT22;31237;45.586;13.782;2024-03-29T01:33:38;11.00;99.90
45491;DHT22;31237;45.586;13.782;2024-03-29T01:36:05;11.00;99.90
45491;DHT22;31237;45.586;13.782;2024-03-29T01:38:31;11.00;99.90
45491;DHT22;31237;45.586;13.782;2024-03-29T01:40:57;11.00;99.90
45491;DHT22;31237;45.586;13.782;2024-03-29T01:43:23;11.00;99.90
45491;DHT22;31237;45.586;13.782;2024-03-29T01:45:52;11.00;99.90
45491;DHT22;31237;45.586;13.782;2024-03-29T01:48:19;11.00;99.90
45491;DHT22;31237;45.586;13.782;2024-03-29T01:50:47;10.90;99.90
45491;DHT22;31237;45.586;13.782;2024-03-29T01:53:15;10.90;99.90
45491;DHT22;31237;45.586;13.782;2024-03-29T01:55:41;10.90;99.90
45491;DHT22;31237;45.586;13.782;2024-03-29T01:58:11;10.90;99.90
45491;DHT22;31237;45.586;13.782;2024-03-29T02:00:39;10.90;99.90
45491;DHT22;31237;45.586;13.782;2024-03-29T02:03:07;10.90;99.90
45491;DHT22;31237;45.586;13.782;2024-03-29T02:05:40;10.90;99.90
45491;DHT22;31237;45.586;13.782;2024-03-29T02:08:07;10.90;99.90
45491;DHT22;31237;45.586;13.782;2024-03-29T02:10:34;10.90;99.90
45491;DHT22;31237;45.586;13.782;2024-03-29T02:13:02;10.90;99.90
45491;DHT22;31237;45.586;13.782;2024-03-29T02:15:29;10.90;99.90
45491;DHT22;31237;45.586;13.782;2024-03-29T02:17:55;10.90;99.90
45491;DHT22;31237;45.586;13.782;2024-03-29T02:20:21;10.90;99.90
45491;DHT22;31237;45.586;13.782;2024-03-29T02:22:53;10.90;99.90
45491;DHT22;31237;45.586;13.782;2024-03-29T02:25:20;10.80;99.90
45491;DHT22;31237;45.586;13.782;2024-03-29T02:27:46;10.80;99.90
45491;DHT22;31237;45.586;13.782;2024-03-29T02:30:15;10.70;99.90
45491;DHT22;31237;45.586;13.782;2024-03-29T02:32:42;10.70;99.90
45491;DHT22;31237;45.586;13.782;2024-03-29T02:35:08;10.70;99.90
45491;DHT22;31237;45.586;13.782;2024-03-29T02:37:35;10.70;99.90
45491;DHT22;31237;45.586;13.782;2024-03-29T02:40:02;10.70;99.90
45491;DHT22;31237;45.586;13.782;2024-03-29T02:42:28;10.70;99.90
45491;DHT22;31237;45.586;13.782;2024-03-29T02:44:54;10.70;99.90
45491;DHT22;31237;45.586;13.782;2024-03-29T02:47:21;10.70;99.90
45491;DHT22;31237;45.586;13.782;2024-03-29T02:49:47;10.70;99.90
45491;DHT22;31237;45.586;13.782;2024-03-29T02:52:13;10.70;99.90
45491;DHT22;31237;45.586;13.782;2024-03-29T02:54:40;10.70;99.90
45491;DHT22;31237;45.586;13.782;2024-03-29T02:57:06;10.70;99.90
45491;DHT22;31237;45.586;13.782;2024-03-29T02:59:32;10.70;99.90
45491;DHT22;31237;45.586;13.782;2024-03-29T03:01:58;10.70;99.90
45491;DHT22;31237;45.586;13.782;2024-03-29T03:04:23;10.70;99.90
45491;DHT22;31237;45.586;13.782;2024-03-29T03:06:49;10.70;99.90
45491;DHT22;31237;45.586;13.782;2024-03-29T03:09:15;10.70;99.90
45491;DHT22;31237;45.586;13.782;2024-03-29T03:11:59;10.70;99.90
45491;DHT22;31237;45.586;13.782;2024-03-29T03:14:25;10.70;99.90
45491;DHT22;31237;45.586;13.782;2024-03-29T03:16:51;10.70;99.90
45491;DHT22;31237;45.586;13.782;2024-03-29T03:19:17;10.70;99.90
45491;DHT22;31237;45.586;13.782;2024-03-29T03:21:42;10.70;99.90
45491;DHT22;31237;45.586;13.782;2024-03-29T03:24:08;10.80;99.90
45491;DHT22;31237;45.586;13.782;2024-03-29T03:26:34;10.80;99.90
45491;DHT22;31237;45.586;13.782;2024-03-29T03:29:00;10.80;99.90
45491;DHT22;31237;45.586;13.782;2024-03-29T03:31:26;10.80;99.90
45491;DHT22;31237;45.586;13.782;2024-03-29T03:33:52;10.80;99.90
45491;DHT22;31237;45.586;13.782;2024-03-29T03:36:18;10.80;99.90
45491;DHT22;31237;45.586;13.782;2024-03-29T03:38:44;10.80;99.90
45491;DHT22;31237;45.586;13.782;2024-03-29T03:41:10;10.80;99.90
45491;DHT22;31237;45.586;13.782;2024-03-29T03:43:35;10.80;99.90
45491;DHT22;31237;45.586;13.782;2024-03-29T03:46:01;10.90;99.90
45491;DHT22;31237;45.586;13.782;2024-03-29T03:48:28;10.90;99.90
45491;DHT22;31237;45.586;13.782;2024-03-29T03:50:57;10.90;99.90
45491;DHT22;31237;45.586;13.782;2024-03-29T03:53:23;10.90;99.90
45491;DHT22;31237;45.586;13.782;2024-03-29T03:55:49;10.90;99.90
45491;DHT22;31237;45.586;13.782;2024-03-29T03:58:15;10.90;99.90
45491;DHT22;31237;45.586;13.782;2024-03-29T04:00:41;10.90;99.90
45491;DHT22;31237;45.586;13.782;2024-03-29T04:03:07;10.90;99.90
45491;DHT22;31237;45.586;13.782;2024-03-29T04:05:33;10.90;99.90
45491;DHT22;31237;45.586;13.782;2024-03-29T04:08:02;10.90;99.90
45491;DHT22;31237;45.586;13.782;2024-03-29T04:10:27;10.90;99.90
45491;DHT22;31237;45.586;13.782;2024-03-29T04:12:53;10.90;99.90
45491;DHT22;31237;45.586;13.782;2024-03-29T04:15:19;10.90;99.90
45491;DHT22;31237;45.586;13.782;2024-03-29T04:17:45;10.90;99.90
45491;DHT22;31237;45.586;13.782;2024-03-29T04:20:10;10.90;99.90
45491;DHT22;31237;45.586;13.782;2024-03-29T04:22:36;11.00;99.90
45491;DHT22;31237;45.586;13.782;2024-03-29T04:25:02;11.00;99.90
45491;DHT22;31237;45.586;13.782;2024-03-29T04:27:28;11.00;99.90
45491;DHT22;31237;45.586;13.782;2024-03-29T04:29:54;11.10;99.90
45491;DHT22;31237;45.586;13.782;2024-03-29T04:32:20;11.00;99.90
45491;DHT22;31237;45.586;13.782;2024-03-29T04:34:47;11.10;99.90
45491;DHT22;31237;45.586;13.782;2024-03-29T04:37:13;11.20;99.90
45491;DHT22;31237;45.586;13.782;2024-03-29T04:39:39;11.20;99.90
45491;DHT22;31237;45.586;13.782;2024-03-29T04:42:05;11.20;99.90
45491;DHT22;31237;45.586;13.782;2024-03-29T04:44:32;11.20;99.90
45491;DHT22;31237;45.586;13.782;2024-03-29T04:46:58;11.20;99.90
45491;DHT22;31237;45.586;13.782;2024-03-29T04:49:23;11.30;99.90
45491;DHT22;31237;45.586;13.782;2024-03-29T04:52:07;11.30;99.90
45491;DHT22;31237;45.586;13.782;2024-03-29T04:54:34;11.40;99.90
45491;DHT22;31237;45.586;13.782;2024-03-29T04:57:00;11.40;99.90
45491;DHT22;31237;45.586;13.782;2024-03-29T04:59:34;11.40;99.90
45491;DHT22;31237;45.586;13.782;2024-03-29T05:02:00;11.50;99.90
45491;DHT22;31237;45.586;13.782;2024-03-29T05:04:26;11.50;99.90
45491;DHT22;31237;45.586;13.782;2024-03-29T05:06:56;11.50;99.90
45491;DHT22;31237;45.586;13.782;2024-03-29T05:09:24;11.60;99.90
45491;DHT22;31237;45.586;13.782;2024-03-29T05:11:50;11.60;99.90
45491;DHT22;31237;45.586;13.782;2024-03-29T05:14:17;11.60;99.90
45491;DHT22;31237;45.586;13.782;2024-03-29T05:16:47;11.60;99.90
45491;DHT22;31237;45.586;13.782;2024-03-29T05:19:14;11.60;99.90
45491;DHT22;31237;45.586;13.782;2024-03-29T05:21:40;11.70;99.90
45491;DHT22;31237;45.586;13.782;2024-03-29T05:24:07;11.70;99.90
45491;DHT22;31237;45.586;13.782;2024-03-29T05:26:33;11.70;99.90
45491;DHT22;31237;45.586;13.782;2024-03-29T05:28:59;11.70;99.90
45491;DHT22;31237;45.586;13.782;2024-03-29T05:31:26;11.80;99.90
45491;DHT22;31237;45.586;13.782;2024-03-29T05:33:52;11.80;99.90
45491;DHT22;31237;45.586;13.782;2024-03-29T05:36:18;11.80;99.90
45491;DHT22;31237;45.586;13.782;2024-03-29T05:38:44;11.90;99.90
45491;DHT22;31237;45.586;13.782;2024-03-29T05:41:11;11.90;99.90
45491;DHT22;31237;45.586;13.782;2024-03-29T05:43:38;11.90;99.90
45491;DHT22;31237;45.586;13.782;2024-03-29T05:46:05;12.00;99.90
45491;DHT22;31237;45.586;13.782;2024-03-29T05:48:31;12.00;99.90
45491;DHT22;31237;45.586;13.782;2024-03-29T05:50:57;12.00;99.90
45491;DHT22;31237;45.586;13.782;2024-03-29T05:53:23;12.10;99.90
45491;DHT22;31237;45.586;13.782;2024-03-29T05:55:49;12.10;99.90
45491;DHT22;31237;45.586;13.782;2024-03-29T05:58:15;12.10;99.90
45491;DHT22;31237;45.586;13.782;2024-03-29T06:00:44;12.20;99.90
45491;DHT22;31237;45.586;13.782;2024-03-29T06:03:10;12.20;99.90
45491;DHT22;31237;45.586;13.782;2024-03-29T06:05:36;12.20;99.90
45491;DHT22;31237;45.586;13.782;2024-03-29T06:08:02;12.30;99.90
45491;DHT22;31237;45.586;13.782;2024-03-29T06:10:27;12.30;99.90
45491;DHT22;31237;45.586;13.782;2024-03-29T06:12:53;12.30;99.90
45491;DHT22;31237;45.586;13.782;2024-03-29T06:15:19;12.30;99.90
45491;DHT22;31237;45.586;13.782;2024-03-29T06:18:03;12.30;99.90
45491;DHT22;31237;45.586;13.782;2024-03-29T06:20:29;12.40;99.90
45491;DHT22;31237;45.586;13.782;2024-03-29T06:22:55;12.40;99.90
45491;DHT22;31237;45.586;13.782;2024-03-29T06:25:21;12.40;99.90
45491;DHT22;31237;45.586;13.782;2024-03-29T06:27:47;12.40;99.90
45491;DHT22;31237;45.586;13.782;2024-03-29T06:30:14;12.50;99.90
45491;DHT22;31237;45.586;13.782;2024-03-29T06:32:41;12.50;99.90
45491;DHT22;31237;45.586;13.782;2024-03-29T06:35:07;12.50;99.90
45491;DHT22;31237;45.586;13.782;2024-03-29T06:37:33;12.50;99.90
45491;DHT22;31237;45.586;13.782;2024-03-29T06:39:59;12.50;99.90
45491;DHT22;31237;45.586;13.782;2024-03-29T06:42:25;12.50;99.90
45491;DHT22;31237;45.586;13.782;2024-03-29T06:44:51;12.50;99.90
45491;DHT22;31237;45.586;13.782;2024-03-29T06:47:18;12.50;99.90
45491;DHT22;31237;45.586;13.782;2024-03-29T06:49:43;12.50;99.90
45491;DHT22;31237;45.586;13.782;2024-03-29T06:52:10;12.60;99.90
45491;DHT22;31237;45.586;13.782;2024-03-29T06:54:37;12.60;99.90
45491;DHT22;31237;45.586;13.782;2024-03-29T06:57:03;12.60;99.90
45491;DHT22;31237;45.586;13.782;2024-03-29T06:59:29;12.60;99.90
45491;DHT22;31237;45.586;13.782;2024-03-29T07:01:55;12.60;99.90
45491;DHT22;31237;45.586;13.782;2024-03-29T07:04:22;12.70;99.90
45491;DHT22;31237;45.586;13.782;2024-03-29T07:06:49;12.70;99.90
45491;DHT22;31237;45.586;13.782;2024-03-29T07:09:21;12.80;99.90
45491;DHT22;31237;45.586;13.782;2024-03-29T07:11:49;12.80;99.90
45491;DHT22;31237;45.586;13.782;2024-03-29T07:14:15;12.90;99.90
45491;DHT22;31237;45.586;13.782;2024-03-29T07:16:42;12.90;99.90
45491;DHT22;31237;45.586;13.782;2024-03-29T07:19:07;13.00;99.90
45491;DHT22;31237;45.586;13.782;2024-03-29T07:21:33;13.10;99.90
45491;DHT22;31237;45.586;13.782;2024-03-29T07:23:59;13.20;99.90
45491;DHT22;31237;45.586;13.782;2024-03-29T07:26:25;13.30;99.90
45491;DHT22;31237;45.586;13.782;2024-03-29T07:28:50;13.40;99.90
45491;DHT22;31237;45.586;13.782;2024-03-29T07:31:16;13.50;99.90
45491;DHT22;31237;45.586;13.782;2024-03-29T07:33:42;13.70;99.90
45491;DHT22;31237;45.586;13.782;2024-03-29T07:36:08;13.90;99.90
45491;DHT22;31237;45.586;13.782;2024-03-29T07:38:38;14.00;99.90
45491;DHT22;31237;45.586;13.782;2024-03-29T07:41:04;14.20;99.90
45491;DHT22;31237;45.586;13.782;2024-03-29T07:43:41;14.40;99.90
45491;DHT22;31237;45.586;13.782;2024-03-29T07:46:16;14.60;99.90
45491;DHT22;31237;45.586;13.782;2024-03-29T07:48:42;14.70;99.90
45491;DHT22;31237;45.586;13.782;2024-03-29T07:51:07;14.80;99.90
45491;DHT22;31237;45.586;13.782;2024-03-29T07:53:33;14.80;99.90
45491;DHT22;31237;45.586;13.782;2024-03-29T07:55:59;14.90;99.90
45491;DHT22;31237;45.586;13.782;2024-03-29T07:58:26;14.90;99.90
45491;DHT22;31237;45.586;13.782;2024-03-29T08:00:52;15.00;99.90
45491;DHT22;31237;45.586;13.782;2024-03-29T08:03:19;15.00;99.90
45491;DHT22;31237;45.586;13.782;2024-03-29T08:05:59;15.10;99.90
45491;DHT22;31237;45.586;13.782;2024-03-29T08:08:26;15.20;99.90
45491;DHT22;31237;45.586;13.782;2024-03-29T08:10:53;15.20;99.90
45491;DHT22;31237;45.586;13.782;2024-03-29T08:13:20;15.30;99.90
45491;DHT22;31237;45.586;13.782;2024-03-29T08:15:47;15.30;99.90
45491;DHT22;31237;45.586;13.782;2024-03-29T08:18:13;15.40;99.90
45491;DHT22;31237;45.586;13.782;2024-03-29T08:20:39;15.50;99.90
45491;DHT22;31237;45.586;13.782;2024-03-29T08:23:05;15.60;99.90
45491;DHT22;31237;45.586;13.782;2024-03-29T08:25:31;15.70;99.90
45491;DHT22;31237;45.586;13.782;2024-03-29T08:27:57;15.80;99.90
45491;DHT22;31237;45.586;13.782;2024-03-29T08:30:26;15.80;99.90
45491;DHT22;31237;45.586;13.782;2024-03-29T08:32:52;16.00;99.90
45491;DHT22;31237;45.586;13.782;2024-03-29T08:35:22;16.10;99.90
45491;DHT22;31237;45.586;13.782;2024-03-29T08:37:48;16.20;99.90
45491;DHT22;31237;45.586;13.782;2024-03-29T08:40:16;16.30;99.90
45491;DHT22;31237;45.586;13.782;2024-03-29T08:42:41;16.30;99.90
45491;DHT22;31237;45.586;13.782;2024-03-29T08:45:08;16.30;99.90
45491;DHT22;31237;45.586;13.782;2024-03-29T08:47:35;16.30;99.90
45491;DHT22;31237;45.586;13.782;2024-03-29T08:50:02;16.40;99.90
45491;DHT22;31237;45.586;13.782;2024-03-29T08:52:30;16.40;99.90
45491;DHT22;31237;45.586;13.782;2024-03-29T08:54:55;16.40;99.80
45491;DHT22;31237;45.586;13.782;2024-03-29T08:57:21;16.50;99.80
45491;DHT22;31237;45.586;13.782;2024-03-29T08:59:47;16.50;99.70
45491;DHT22;31237;45.586;13.782;2024-03-29T09:02:13;16.50;99.50
45491;DHT22;31237;45.586;13.782;2024-03-29T09:04:39;16.50;99.60
45491;DHT22;31237;45.586;13.782;2024-03-29T09:17:34;16.50;98.70
45491;DHT22;31237;45.586;13.782;2024-03-29T09:20:00;16.50;99.00
45491;DHT22;31237;45.586;13.782;2024-03-29T09:22:26;16.50;99.10
45491;DHT22;31237;45.586;13.782;2024-03-29T09:24:51;16.50;99.20
45491;DHT22;31237;45.586;13.782;2024-03-29T09:27:17;16.60;99.40
45491;DHT22;31237;45.586;13.782;2024-03-29T09:29:47;16.60;99.30
45491;DHT22;31237;45.586;13.782;2024-03-29T09:32:13;16.70;99.30
45491;DHT22;31237;45.586;13.782;2024-03-29T09:34:38;16.70;99.30
45491;DHT22;31237;45.586;13.782;2024-03-29T09:37:04;16.80;99.40
45491;DHT22;31237;45.586;13.782;2024-03-29T09:39:30;16.90;99.30
45491;DHT22;31237;45.586;13.782;2024-03-29T09:41:58;17.00;99.30
45491;DHT22;31237;45.586;13.782;2024-03-29T09:44:26;17.10;99.20
45491;DHT22;31237;45.586;13.782;2024-03-29T09:46:55;17.20;99.10
45491;DHT22;31237;45.586;13.782;2024-03-29T09:49:22;17.20;99.00
45491;DHT22;31237;45.586;13.782;2024-03-29T09:51:49;17.30;98.90
45491;DHT22;31237;45.586;13.782;2024-03-29T09:54:15;17.40;98.90
45491;DHT22;31237;45.586;13.782;2024-03-29T09:56:41;17.50;98.50
45491;DHT22;31237;45.586;13.782;2024-03-29T09:59:07;17.60;98.30
45491;DHT22;31237;45.586;13.782;2024-03-29T10:01:34;17.70;98.10
45491;DHT22;31237;45.586;13.782;2024-03-29T10:04:01;17.80;97.90
45491;DHT22;31237;45.586;13.782;2024-03-29T10:06:28;17.80;97.40
45491;DHT22;31237;45.586;13.782;2024-03-29T10:08:55;17.80;97.00
45491;DHT22;31237;45.586;13.782;2024-03-29T10:11:23;17.80;97.10
45491;DHT22;31237;45.586;13.782;2024-03-29T10:13:50;17.80;97.10
45491;DHT22;31237;45.586;13.782;2024-03-29T10:16:19;17.80;96.70
45491;DHT22;31237;45.586;13.782;2024-03-29T10:18:47;17.80;96.60
45491;DHT22;31237;45.586;13.782;2024-03-29T10:21:13;17.90;96.70
45491;DHT22;31237;45.586;13.782;2024-03-29T10:23:40;17.90;96.60
45491;DHT22;31237;45.586;13.782;2024-03-29T10:26:06;17.90;96.30
45491;DHT22;31237;45.586;13.782;2024-03-29T10:28:36;18.00;96.30
45491;DHT22;31237;45.586;13.782;2024-03-29T10:31:04;18.00;95.90
45491;DHT22;31237;45.586;13.782;2024-03-29T10:33:33;18.00;95.70
45491;DHT22;31237;45.586;13.782;2024-03-29T10:36:00;18.00;95.60
45491;DHT22;31237;45.586;13.782;2024-03-29T10:38:27;18.00;95.60
45491;DHT22;31237;45.586;13.782;2024-03-29T10:40:53;18.00;95.50
45491;DHT22;31237;45.586;13.782;2024-03-29T10:43:20;18.10;95.60
45491;DHT22;31237;45.586;13.782;2024-03-29T10:45:50;18.10;95.50
45491;DHT22;31237;45.586;13.782;2024-03-29T10:48:16;18.20;95.50
45491;DHT22;31237;45.586;13.782;2024-03-29T10:50:44;18.40;95.40
45491;DHT22;31237;45.586;13.782;2024-03-29T10:53:12;18.50;95.30
45491;DHT22;31237;45.586;13.782;2024-03-29T10:55:42;18.60;95.00
45491;DHT22;31237;45.586;13.782;2024-03-29T10:58:11;18.60;94.70
45491;DHT22;31237;45.586;13.782;2024-03-29T11:00:47;18.70;94.50
45491;DHT22;31237;45.586;13.782;2024-03-29T11:03:18;18.60;94.20
45491;DHT22;31237;45.586;13.782;2024-03-29T11:05:48;18.60;94.20
45491;DHT22;31237;45.586;13.782;2024-03-29T11:08:24;18.50;94.00
45491;DHT22;31237;45.586;13.782;2024-03-29T11:10:57;18.40;94.00
45491;DHT22;31237;45.586;13.782;2024-03-29T11:15:53;18.30;94.00
45491;DHT22;31237;45.586;13.782;2024-03-29T11:18:20;18.30;94.00
45491;DHT22;31237;45.586;13.782;2024-03-29T11:20:50;18.30;93.80
45491;DHT22;31237;45.586;13.782;2024-03-29T11:23:17;18.40;93.40
45491;DHT22;31237;45.586;13.782;2024-03-29T11:25:51;18.30;93.30
45491;DHT22;31237;45.586;13.782;2024-03-29T11:30:53;18.30;93.20
45491;DHT22;31237;45.586;13.782;2024-03-29T11:33:35;18.30;92.90
45491;DHT22;31237;45.586;13.782;2024-03-29T11:36:24;18.30;93.10
45491;DHT22;31237;45.586;13.782;2024-03-29T11:38:52;18.40;93.30
45491;DHT22;31237;45.586;13.782;2024-03-29T11:41:21;18.50;93.30
45491;DHT22;31237;45.586;13.782;2024-03-29T11:43:54;18.70;93.20
45491;DHT22;31237;45.586;13.782;2024-03-29T11:46:22;18.90;92.90
45491;DHT22;31237;45.586;13.782;2024-03-29T11:48:48;19.20;92.80
45491;DHT22;31237;45.586;13.782;2024-03-29T11:51:20;19.30;91.60
45491;DHT22;31237;45.586;13.782;2024-03-29T11:53:51;19.40;91.00
45491;DHT22;31237;45.586;13.782;2024-03-29T11:56:18;19.30;91.00
45491;DHT22;31237;45.586;13.782;2024-03-29T11:58:44;19.20;91.00
45491;DHT22;31237;45.586;13.782;2024-03-29T12:01:10;19.00;91.30
45491;DHT22;31237;45.586;13.782;2024-03-29T12:03:40;18.90;91.30
45491;DHT22;31237;45.586;13.782;2024-03-29T12:06:07;18.70;91.10
45491;DHT22;31237;45.586;13.782;2024-03-29T12:08:42;18.50;91.50
45491;DHT22;31237;45.586;13.782;2024-03-29T12:11:09;18.40;91.80
45491;DHT22;31237;45.586;13.782;2024-03-29T12:13:35;18.30;91.90
45491;DHT22;31237;45.586;13.782;2024-03-29T12:16:01;18.20;92.00
45491;DHT22;31237;45.586;13.782;2024-03-29T12:18:27;18.10;92.00
45491;DHT22;31237;45.586;13.782;2024-03-29T12:20:59;18.00;92.30
45491;DHT22;31237;45.586;13.782;2024-03-29T12:23:25;17.90;92.40
45491;DHT22;31237;45.586;13.782;2024-03-29T12:25:55;17.80;92.50
45491;DHT22;31237;45.586;13.782;2024-03-29T12:28:24;17.60;92.70
45491;DHT22;31237;45.586;13.782;2024-03-29T12:30:50;17.50;93.10
45491;DHT22;31237;45.586;13.782;2024-03-29T12:33:21;17.30;93.20
45491;DHT22;31237;45.586;13.782;2024-03-29T12:35:51;17.20;93.50
45491;DHT22;31237;45.586;13.782;2024-03-29T12:38:22;17.00;93.90
45491;DHT22;31237;45.586;13.782;2024-03-29T12:40:49;16.90;94.50
45491;DHT22;31237;45.586;13.782;2024-03-29T12:43:22;16.80;94.90
45491;DHT22;31237;45.586;13.782;2024-03-29T12:45:49;16.80;95.40
45491;DHT22;31237;45.586;13.782;2024-03-29T12:48:17;16.80;95.40
45491;DHT22;31237;45.586;13.782;2024-03-29T12:50:45;16.90;95.50
45491;DHT22;31237;45.586;13.782;2024-03-29T12:53:12;16.90;95.40
45491;DHT22;31237;45.586;13.782;2024-03-29T12:55:43;16.90;95.60
45491;DHT22;31237;45.586;13.782;2024-03-29T12:58:15;16.90;95.80
45491;DHT22;31237;45.586;13.782;2024-03-29T13:00:42;17.00;95.70
45491;DHT22;31237;45.586;13.782;2024-03-29T13:03:08;16.90;95.60
45491;DHT22;31237;45.586;13.782;2024-03-29T13:05:38;16.90;95.80
45491;DHT22;31237;45.586;13.782;2024-03-29T13:08:09;17.00;96.00
45491;DHT22;31237;45.586;13.782;2024-03-29T13:10:36;17.00;96.10
45491;DHT22;31237;45.586;13.782;2024-03-29T13:13:02;17.00;96.00
45491;DHT22;31237;45.586;13.782;2024-03-29T13:15:28;17.00;96.20
45491;DHT22;31237;45.586;13.782;2024-03-29T13:17:56;17.00;96.10
45491;DHT22;31237;45.586;13.782;2024-03-29T13:20:23;17.10;96.20
45491;DHT22;31237;45.586;13.782;2024-03-29T13:22:51;17.10;96.10
45491;DHT22;31237;45.586;13.782;2024-03-29T13:25:20;17.10;96.00
45491;DHT22;31237;45.586;13.782;2024-03-29T13:27:51;17.10;95.80
45491;DHT22;31237;45.586;13.782;2024-03-29T13:30:24;17.00;95.90
45491;DHT22;31237;45.586;13.782;2024-03-29T13:32:51;17.00;96.00
45491;DHT22;31237;45.586;13.782;2024-03-29T13:35:18;17.00;96.00
45491;DHT22;31237;45.586;13.782;2024-03-29T13:37:47;17.00;96.20
45491;DHT22;31237;45.586;13.782;2024-03-29T13:40:14;17.00;96.50
45491;DHT22;31237;45.586;13.782;2024-03-29T13:42:41;17.10;96.30
45491;DHT22;31237;45.586;13.782;2024-03-29T13:45:08;17.20;96.20
45491;DHT22;31237;45.586;13.782;2024-03-29T13:47:39;17.20;95.90
45491;DHT22;31237;45.586;13.782;2024-03-29T13:50:06;17.20;95.70
45491;DHT22;31237;45.586;13.782;2024-03-29T13:52:32;17.20;95.80
45491;DHT22;31237;45.586;13.782;2024-03-29T13:54:59;17.10;95.80
45491;DHT22;31237;45.586;13.782;2024-03-29T13:57:25;17.10;96.00
45491;DHT22;31237;45.586;13.782;2024-03-29T13:59:51;17.10;96.10
45491;DHT22;31237;45.586;13.782;2024-03-29T14:02:18;17.10;96.20
45491;DHT22;31237;45.586;13.782;2024-03-29T14:04:44;17.10;96.20
45491;DHT22;31237;45.586;13.782;2024-03-29T14:07:11;17.20;96.20
45491;DHT22;31237;45.586;13.782;2024-03-29T14:09:42;17.30;96.30
45491;DHT22;31237;45.586;13.782;2024-03-29T14:12:08;17.30;96.40
45491;DHT22;31237;45.586;13.782;2024-03-29T14:14:38;17.40;96.50
45491;DHT22;31237;45.586;13.782;2024-03-29T14:17:04;17.40;96.50
45491;DHT22;31237;45.586;13.782;2024-03-29T14:19:35;17.50;96.50
45491;DHT22;31237;45.586;13.782;2024-03-29T14:22:01;17.70;96.40
45491;DHT22;31237;45.586;13.782;2024-03-29T14:24:28;17.70;96.10
45491;DHT22;31237;45.586;13.782;2024-03-29T14:26:56;17.70;95.90
45491;DHT22;31237;45.586;13.782;2024-03-29T14:29:22;17.70;95.90
45491;DHT22;31237;45.586;13.782;2024-03-29T14:31:49;17.60;95.90
45491;DHT22;31237;45.586;13.782;2024-03-29T14:34:18;17.50;95.90
45491;DHT22;31237;45.586;13.782;2024-03-29T14:36:45;17.40;96.10
45491;DHT22;31237;45.586;13.782;2024-03-29T14:39:11;17.30;96.10
45491;DHT22;31237;45.586;13.782;2024-03-29T14:41:41;17.30;96.20
45491;DHT22;31237;45.586;13.782;2024-03-29T14:44:07;17.30;96.40
45491;DHT22;31237;45.586;13.782;2024-03-29T14:46:34;17.20;96.40
45491;DHT22;31237;45.586;13.782;2024-03-29T14:49:03;17.10;96.50
45491;DHT22;31237;45.586;13.782;2024-03-29T14:51:33;17.10;96.80
45491;DHT22;31237;45.586;13.782;2024-03-29T14:53:59;17.10;97.00
45491;DHT22;31237;45.586;13.782;2024-03-29T14:56:24;17.20;97.10
45491;DHT22;31237;45.586;13.782;2024-03-29T14:58:51;17.20;97.10
45491;DHT22;31237;45.586;13.782;2024-03-29T15:01:17;17.30;97.10
45491;DHT22;31237;45.586;13.782;2024-03-29T15:03:42;17.30;97.10
45491;DHT22;31237;45.586;13.782;2024-03-29T15:06:08;17.30;97.20
45491;DHT22;31237;45.586;13.782;2024-03-29T15:08:34;17.30;97.20
45491;DHT22;31237;45.586;13.782;2024-03-29T15:11:00;17.30;97.20
45491;DHT22;31237;45.586;13.782;2024-03-29T15:13:27;17.40;97.20
45491;DHT22;31237;45.586;13.782;2024-03-29T15:16:02;17.30;97.10
45491;DHT22;31237;45.586;13.782;2024-03-29T15:18:28;17.30;97.00
45491;DHT22;31237;45.586;13.782;2024-03-29T15:20:58;17.20;97.10
45491;DHT22;31237;45.586;13.782;2024-03-29T15:23:25;17.10;97.10
45491;DHT22;31237;45.586;13.782;2024-03-29T15:25:52;17.00;97.10
45491;DHT22;31237;45.586;13.782;2024-03-29T15:28:19;16.90;97.30
45491;DHT22;31237;45.586;13.782;2024-03-29T15:31:10;16.90;97.50